San Francisco, California
Traffic Map
Current Weather Conditions
San Francisco, California
Clear
Clear
55°
Feels Like: 55°
Wind Chill: 55° Ceiling: Unl
Heat Index: 55° Visibility: 10mi
Dew Point: 42° Wind: 3mph
Humidity: 62% Direction: 200° (SSW)
Pressure: 30.29in Gusts: 0mph
Raw Report DataKSFO 060856Z 20003KT 10SM CLR 13/06 A3029 RMK AO2 SLP256 T01280056 58003
Traffic Incident Summary
Active as of:
Severity:
Category:
InformationThere was an issue retrieving the traffic information for this location. Please try a different location or try again shortly.
Advertisements
Track Severe Weather on mobile